< < Back
Terminal Aerodrome Forecast


Current Version              Previous Versions:   1  2  3  4  5  6  7  8  9  

Terminal Aerodrome Forecast

737
FTUS44 KMOB 201700 RRA
TAFPNS
TAF
KPNS 201748Z 2018/2118 07005KT P6SM FEW060 SCT200
     FM201900 16004KT P6SM SCT250
     FM210400 35004KT P6SM SCT250=

Latest METAR

617
SAUS70 KWBC 210000
MTRPNS
METAR KPNS 202353Z AUTO 23003KT 10SM CLR 21/15 A2999 RMK AO2 SLP156
T02110150 10256 20206 53004


USA.gov is the U.S. government's official web portal to all federal, state and local government web resources and services.